Time;durP1;ratioP1;P1;durP2;ratioP2;P2;SDS_P1;SDS_P2;PMS_P1;PMS_P2;Temp;Humidity;BMP_temperature;BMP_pressure;BME280_temperature;BME280_humidity;BME280_pressure;Samples;Min_cycle;Max_cycle;Signal;HPM_P1;HPM_P2
2021/01/07 00:01:40;;;;;;;185.00;104.20;;;231.20;2022.40;;;;;;5032703;28;20032;-82
2021/01/07 00:04:05;;;;;;;161.65;96.38;;;231.20;2048.00;;;;;;5032941;28;20393;-84
2021/01/07 00:06:31;;;;;;;150.80;90.30;;;231.20;2022.40;;;;;;5033034;28;20029;-81
2021/01/07 00:08:57;;;;;;;110.70;65.47;;;231.30;2022.40;;;;;;5032371;28;20025;-80
2021/01/07 00:11:23;;;;;;;69.28;41.15;;;231.20;2022.40;;;;;;5033169;28;20065;-82
2021/01/07 00:13:49;;;;;;;138.02;75.65;;;231.10;2073.60;;;;;;5033229;28;20031;-80
2021/01/07 00:16:15;;;;;;;143.50;80.72;;;231.00;2073.60;;;;;;5030227;28;20021;-82
2021/01/07 00:18:41;;;;;;;110.78;64.18;;;231.00;2048.00;;;;;;5040461;28;20405;-80
2021/01/07 00:21:06;;;;;;;83.15;48.60;;;231.00;2073.60;;;;;;5030330;28;20025;-83
2021/01/07 00:23:32;;;;;;;68.68;42.78;;;231.00;2048.00;;;;;;5030813;28;20033;-83
2021/01/07 00:25:58;;;;;;;53.70;34.55;;;231.00;2048.00;;;;;;5031288;28;20071;-82
2021/01/07 00:28:25;;;;;;;42.60;28.08;;;231.00;2048.00;;;;;;5031295;28;20472;-79
2021/01/07 00:30:51;;;;;;;57.53;33.08;;;231.10;2048.00;;;;;;5029789;28;20091;-82
2021/01/07 00:33:18;;;;;;;65.97;35.08;;;231.10;2048.00;;;;;;5029737;28;20362;-82
2021/01/07 00:35:44;;;;;;;39.15;22.35;;;231.00;2048.00;;;;;;5027979;28;20053;-83
2021/01/07 00:38:10;;;;;;;39.13;20.60;;;231.10;2048.00;;;;;;5030990;28;20061;-82
2021/01/07 00:40:37;;;;;;;30.02;15.07;;;231.00;2022.40;;;;;;5032957;28;20554;-83
2021/01/07 00:43:04;;;;;;;59.05;27.65;;;231.00;2022.40;;;;;;5032250;28;20029;-84
2021/01/07 00:45:30;;;;;;;25.95;14.07;;;231.00;2022.40;;;;;;5033634;28;20036;-84
2021/01/07 00:47:57;;;;;;;24.55;13.18;;;231.00;1996.80;;;;;;5033608;28;20022;-84
2021/01/07 00:50:23;;;;;;;15.35;8.07;;;231.00;1971.20;;;;;;5033626;28;20025;-86
2021/01/07 00:52:48;;;;;;;21.20;9.60;;;231.10;1971.20;;;;;;5033421;28;20172;-86
2021/01/07 00:55:16;;;;;;;23.65;10.98;;;231.00;2022.40;;;;;;5033291;28;20045;-87
2021/01/07 00:57:42;;;;;;;46.83;28.42;;;231.10;1996.80;;;;;;5033326;28;20029;-86
2021/01/07 01:00:10;;;;;;;42.17;24.15;;;230.90;2048.00;;;;;;5033490;28;20021;-86
2021/01/07 01:02:36;;;;;;;57.75;28.85;;;230.80;2048.00;;;;;;5033417;28;20025;-86
2021/01/07 01:05:03;;;;;;;54.60;30.67;;;230.80;2099.20;;;;;;5033350;28;20045;-85
2021/01/07 01:07:30;;;;;;;43.25;27.33;;;230.80;2099.20;;;;;;5033395;28;20527;-84
2021/01/07 01:09:56;;;;;;;37.92;24.70;;;230.70;2099.20;;;;;;5040989;28;20536;-84
2021/01/07 01:12:23;;;;;;;62.67;36.50;;;230.70;2099.20;;;;;;5032626;28;20049;-84
2021/01/07 01:14:49;;;;;;;117.70;58.97;;;231.10;2124.80;;;;;;5032398;28;20061;-85
2021/01/07 01:17:15;;;;;;;133.93;65.47;;;230.50;2124.80;;;;;;5033338;28;20041;-83
2021/01/07 01:19:41;;;;;;;79.85;43.58;;;230.80;2099.20;;;;;;5033105;28;20030;-85
2021/01/07 01:22:07;;;;;;;41.17;18.92;;;230.80;2099.20;;;;;;5034445;28;20453;-85
2021/01/07 01:24:33;;;;;;;18.88;10.65;;;230.80;2073.60;;;;;;5033185;28;20080;-85
2021/01/07 01:27:00;;;;;;;66.90;43.55;;;230.90;2022.40;;;;;;5033286;28;20022;-85
2021/01/07 01:29:26;;;;;;;65.10;42.05;;;230.90;2073.60;;;;;;5033278;28;20021;-84
2021/01/07 01:31:53;;;;;;;68.93;42.15;;;230.90;2073.60;;;;;;5032742;28;20033;-84
2021/01/07 01:34:20;;;;;;;68.22;41.90;;;230.90;2099.20;;;;;;5032790;28;20030;-84
2021/01/07 01:36:46;;;;;;;59.28;35.92;;;230.90;2099.20;;;;;;5033068;28;20173;-84
2021/01/07 01:39:13;;;;;;;63.85;38.70;;;230.90;2099.20;;;;;;5032463;28;20119;-84
2021/01/07 01:41:44;;;;;;;62.28;41.92;;;230.80;2099.20;;;;;;5032783;28;20029;-84
2021/01/07 01:44:10;;;;;;;78.57;47.05;;;230.80;2124.80;;;;;;5032900;28;20038;-84
2021/01/07 01:46:38;;;;;;;89.88;55.60;;;230.70;2124.80;;;;;;5033311;28;20501;-84
2021/01/07 01:49:06;;;;;;;77.88;51.10;;;230.70;2124.80;;;;;;5032952;28;20029;-84
2021/01/07 01:51:32;;;;;;;90.43;58.92;;;230.60;2150.40;;;;;;5032438;28;20393;-84
2021/01/07 01:53:58;;;;;;;103.90;63.50;;;230.70;2124.80;;;;;;5032874;28;20481;-84
2021/01/07 01:56:25;;;;;;;111.65;67.57;;;230.70;2124.80;;;;;;5032438;28;20025;-84
2021/01/07 01:58:51;;;;;;;66.43;40.05;;;230.70;2150.40;;;;;;5032671;28;20076;-84
2021/01/07 02:01:18;;;;;;;52.50;32.40;;;231.00;2099.20;;;;;;5032697;28;20029;-84
2021/01/07 02:03:45;;;;;;;36.72;16.92;;;230.80;2073.60;;;;;;5033076;28;20033;-85
2021/01/07 02:06:13;;;;;;;33.40;15.80;;;230.90;2022.40;;;;;;5033579;28;20120;-85
2021/01/07 02:08:46;;;;;;;26.50;15.43;;;231.00;1996.80;;;;;;5036518;28;20474;-85
2021/01/07 02:11:14;;;;;;;31.70;20.67;;;231.00;2022.40;;;;;;5037115;28;20089;-85
2021/01/07 02:13:43;;;;;;;21.48;12.15;;;230.90;2022.40;;;;;;5036426;28;20061;-84
2021/01/07 02:16:18;;;;;;;28.30;15.40;;;231.00;1996.80;;;;;;5034829;28;20025;-86
2021/01/07 02:18:44;;;;;;;13.52;6.40;;;231.00;2022.40;;;;;;5036571;28;20109;-85
2021/01/07 02:21:10;;;;;;;14.13;7.32;;;231.30;1971.20;;;;;;5035536;28;20032;-85
2021/01/07 02:23:55;;;;;;;16.30;8.95;;;231.10;1971.20;;;;;;5036332;28;20381;-87
2021/01/07 02:26:22;;;;;;;9.27;5.07;;;231.10;1971.20;;;;;;5036866;28;20057;-85
2021/01/07 02:28:49;;;;;;;14.05;7.28;;;231.10;1945.60;;;;;;5035937;28;20120;-86
2021/01/07 02:31:17;;;;;;;15.52;7.18;;;231.20;1945.60;;;;;;5035354;28;20055;-87
2021/01/07 02:33:43;;;;;;;12.32;6.15;;;231.20;1945.60;;;;;;5036787;28;20120;-85
2021/01/07 02:36:10;;;;;;;9.82;5.35;;;231.20;1920.00;;;;;;5035138;28;20489;-85
2021/01/07 02:38:36;;;;;;;8.20;3.55;;;231.20;1945.60;;;;;;5035782;28;20045;-85
2021/01/07 02:41:03;;;;;;;8.15;4.65;;;231.20;1920.00;;;;;;5036043;28;20461;-87
2021/01/07 02:43:29;;;;;;;9.98;4.50;;;231.20;1920.00;;;;;;5035722;28;20037;-85
2021/01/07 02:45:55;;;;;;;14.02;6.55;;;231.20;1920.00;;;;;;5035781;28;20021;-86
2021/01/07 02:48:21;;;;;;;11.98;5.03;;;231.20;1945.60;;;;;;5035954;28;20384;-85
2021/01/07 02:50:47;;;;;;;12.20;6.88;;;231.20;1945.60;;;;;;5035625;28;20108;-85
2021/01/07 02:53:13;;;;;;;9.35;4.70;;;231.10;1945.60;;;;;;5035448;28;20036;-86
2021/01/07 02:55:39;;;;;;;12.77;6.18;;;231.00;1945.60;;;;;;5036180;28;20484;-86
2021/01/07 02:58:06;;;;;;;9.90;4.55;;;231.10;1945.60;;;;;;5035652;28;20034;-85
2021/01/07 03:00:32;;;;;;;7.70;4.05;;;231.10;1945.60;;;;;;5035806;28;20051;-85
2021/01/07 03:02:58;;;;;;;9.77;4.55;;;231.10;1945.60;;;;;;5035646;28;20030;-85
2021/01/07 03:05:23;;;;;;;8.07;4.05;;;231.10;1945.60;;;;;;5035193;28;20037;-86
2021/01/07 03:07:49;;;;;;;12.60;6.03;;;231.10;1971.20;;;;;;5035491;28;20117;-86
2021/01/07 03:10:15;;;;;;;8.13;3.90;;;231.10;1996.80;;;;;;5035736;28;20029;-85
2021/01/07 03:12:41;;;;;;;7.40;3.92;;;230.90;2048.00;;;;;;5035480;28;20574;-86
2021/01/07 03:15:08;;;;;;;10.75;5.95;;;230.80;2099.20;;;;;;5035381;28;20124;-85
2021/01/07 03:17:33;;;;;;;8.50;4.72;;;230.80;2150.40;;;;;;5035340;28;20034;-86
2021/01/07 03:20:00;;;;;;;10.85;4.85;;;230.70;2150.40;;;;;;5035476;28;20029;-87
2021/01/07 03:22:26;;;;;;;9.82;4.07;;;230.60;2150.40;;;;;;5035803;28;20025;-87
2021/01/07 03:24:52;;;;;;;10.52;4.43;;;230.60;2176.00;;;;;;5035134;28;20033;-87
2021/01/07 03:27:18;;;;;;;6.70;3.33;;;230.60;2201.60;;;;;;5035911;28;20076;-87
2021/01/07 03:29:44;;;;;;;8.38;3.30;;;230.40;2201.60;;;;;;5035078;28;20101;-87
2021/01/07 03:32:10;;;;;;;12.05;5.38;;;205.70;2201.60;;;;;;5035061;28;20022;-87
2021/01/07 03:34:35;;;;;;;7.43;3.45;;;205.70;2227.20;;;;;;5034941;28;20021;-86
2021/01/07 03:37:01;;;;;;;8.50;3.92;;;205.70;2201.60;;;;;;5035424;28;20033;-87
2021/01/07 03:39:27;;;;;;;8.15;5.97;;;205.70;2176.00;;;;;;5034844;28;20588;-87
2021/01/07 03:41:53;;;;;;;8.23;5.55;;;205.60;2176.00;;;;;;5035322;28;20026;-87
2021/01/07 03:44:19;;;;;;;9.27;4.65;;;205.60;2176.00;;;;;;5035675;28;20103;-87
2021/01/07 03:46:45;;;;;;;5.55;2.85;;;205.50;2227.20;;;;;;5034982;28;20021;-87
2021/01/07 03:49:11;;;;;;;7.75;3.40;;;205.50;2227.20;;;;;;5035352;28;20024;-87
2021/01/07 03:51:37;;;;;;;14.07;7.18;;;205.70;2201.60;;;;;;5034849;28;20474;-87
2021/01/07 03:54:03;;;;;;;12.27;5.72;;;205.60;2252.80;;;;;;5034995;28;20030;-87
2021/01/07 03:56:28;;;;;;;10.82;5.60;;;205.40;2176.00;;;;;;5035000;28;20056;-87
2021/01/07 03:58:55;;;;;;;9.55;4.72;;;205.30;2150.40;;;;;;5034800;28;20026;-86
2021/01/07 04:01:21;;;;;;;7.72;4.65;;;205.20;2176.00;;;;;;5034472;28;20117;-87
2021/01/07 04:03:47;;;;;;;9.85;5.35;;;204.80;2150.40;;;;;;5035062;28;20057;-87
2021/01/07 04:06:13;;;;;;;9.75;5.60;;;180.10;2124.80;;;;;;5034314;28;20017;-87
2021/01/07 04:08:39;;;;;;;9.10;4.13;;;204.80;2201.60;;;;;;5035233;28;20021;-87
2021/01/07 04:11:05;;;;;;;12.77;4.97;;;180.00;2150.40;;;;;;5034347;28;20108;-87
2021/01/07 04:13:31;;;;;;;6.03;4.00;;;180.00;2176.00;;;;;;5034004;28;20025;-88
2021/01/07 04:15:57;;;;;;;12.70;5.72;;;179.80;2176.00;;;;;;5034811;28;20454;-88
2021/01/07 04:18:23;;;;;;;10.52;5.25;;;179.70;2176.00;;;;;;5034505;28;20085;-88
2021/01/07 04:20:49;;;;;;;9.50;4.70;;;179.80;2176.00;;;;;;5034549;28;20064;-88
2021/01/07 04:23:15;;;;;;;5.40;3.17;;;179.70;2227.20;;;;;;5034433;28;20022;-88
2021/01/07 04:25:41;;;;;;;5.70;4.03;;;179.70;2201.60;;;;;;5034501;28;20022;-88
2021/01/07 04:28:07;;;;;;;6.15;3.95;;;179.70;2176.00;;;;;;5034657;28;20022;-88
2021/01/07 04:30:33;;;;;;;6.15;4.03;;;179.60;2201.60;;;;;;5034266;28;20489;-88
2021/01/07 04:33:00;;;;;;;6.97;3.85;;;179.50;2201.60;;;;;;5034295;28;20034;-89
2021/01/07 04:35:26;;;;;;;15.02;6.28;;;179.40;2227.20;;;;;;5034210;28;20465;-89
2021/01/07 04:37:52;;;;;;;17.58;9.45;;;179.40;2201.60;;;;;;5035991;28;20033;-89
2021/01/07 04:40:18;;;;;;;15.63;8.88;;;179.20;2252.80;;;;;;5053878;28;20017;-89
2021/01/07 04:42:44;;;;;;;11.98;5.68;;;154.50;2227.20;;;;;;5053907;28;20130;-89
2021/01/07 04:45:12;;;;;;;10.95;5.93;;;154.30;2227.20;;;;;;5053832;28;20025;-89
2021/01/07 04:47:40;;;;;;;15.27;7.60;;;154.30;2252.80;;;;;;5053978;28;20380;-89
2021/01/07 04:50:06;;;;;;;8.10;4.75;;;154.20;2227.20;;;;;;5053699;28;20021;-89
2021/01/07 04:52:34;;;;;;;14.10;6.75;;;154.30;2227.20;;;;;;5053734;28;20029;-88
2021/01/07 04:55:01;;;;;;;9.13;4.53;;;154.20;2252.80;;;;;;5053757;28;20028;-88
2021/01/07 04:57:27;;;;;;;10.52;5.70;;;154.20;2227.20;;;;;;5053909;28;20029;-88
2021/01/07 04:59:52;;;;;;;15.68;6.70;;;154.10;2227.20;;;;;;5053754;28;20029;-88
2021/01/07 05:02:19;;;;;;;11.27;5.82;;;154.10;2252.80;;;;;;5053642;28;20024;-89
2021/01/07 05:04:52;;;;;;;10.10;5.32;;;154.00;2252.80;;;;;;5053458;28;20154;-88
2021/01/07 05:07:19;;;;;;;10.70;4.82;;;154.00;2252.80;;;;;;5053754;28;20111;-88
2021/01/07 05:09:46;;;;;;;10.95;5.00;;;128.90;2252.80;;;;;;5053747;28;20021;-89
2021/01/07 05:12:14;;;;;;;16.60;8.95;;;153.90;2252.80;;;;;;5053360;28;20099;-89
2021/01/07 05:14:41;;;;;;;7.57;4.88;;;153.80;2252.80;;;;;;5053212;28;20502;-89
2021/01/07 05:17:09;;;;;;;15.93;8.13;;;153.90;2252.80;;;;;;5053627;28;20179;-88
2021/01/07 05:19:38;;;;;;;15.50;10.30;;;153.90;2252.80;;;;;;5053451;28;20071;-88
2021/01/07 05:22:05;;;;;;;21.88;14.85;;;153.90;2252.80;;;;;;5053494;28;20025;-89
2021/01/07 05:24:32;;;;;;;26.48;17.52;;;153.90;2252.80;;;;;;5052965;28;20021;-88
2021/01/07 05:27:08;;;;;;;45.58;26.23;;;154.00;2252.80;;;;;;5053464;28;20021;-89
2021/01/07 05:29:35;;;;;;;44.08;26.23;;;153.90;2252.80;;;;;;5053323;28;20067;-88
2021/01/07 05:32:02;;;;;;;21.70;17.10;;;153.90;2252.80;;;;;;5052343;28;20362;-89
2021/01/07 05:34:28;;;;;;;26.98;21.05;;;153.70;2252.80;;;;;;5053038;28;20496;-89
2021/01/07 05:36:59;;;;;;;25.55;15.18;;;154.00;2252.80;;;;;;5036287;28;20033;-85
2021/01/07 05:39:33;;;;;;;22.35;16.42;;;154.10;2252.80;;;;;;5052963;28;20049;-90
2021/01/07 05:42:03;;;;;;;14.10;10.82;;;154.10;2252.80;;;;;;5056256;28;20081;-90
2021/01/07 05:44:32;;;;;;;18.45;12.35;;;154.30;2252.80;;;;;;5057450;28;20086;-90
2021/01/07 05:46:59;;;;;;;22.45;16.92;;;153.80;2252.80;;;;;;5057406;28;20465;-91
2021/01/07 05:49:38;;;;;;;28.83;19.92;;;128.80;2252.80;;;;;;5057143;28;20017;-91
2021/01/07 05:52:06;;;;;;;29.05;18.17;;;153.80;2252.80;;;;;;5057302;28;20021;-90
2021/01/07 05:54:33;;;;;;;12.80;9.93;;;153.80;2252.80;;;;;;5056948;28;20032;-91
2021/01/07 05:57:04;;;;;;;14.60;9.15;;;153.80;2252.80;;;;;;5057790;28;20029;-92
2021/01/07 05:59:36;;;;;;;14.48;11.77;;;153.80;2252.80;;;;;;5057358;28;20070;-90
2021/01/07 06:02:04;;;;;;;24.63;16.50;;;153.60;2252.80;;;;;;5057236;28;20029;-90
2021/01/07 06:04:34;;;;;;;7.90;6.00;;;153.60;2252.80;;;;;;5056945;28;20127;-89
2021/01/07 06:07:04;;;;;;;12.10;9.60;;;153.70;2252.80;;;;;;5056806;28;20017;-87
2021/01/07 06:09:31;;;;;;;10.27;7.57;;;153.70;2252.80;;;;;;5057298;28;20021;-87
2021/01/07 06:11:59;;;;;;;9.05;5.40;;;153.70;2252.80;;;;;;5056728;28;20016;-87
2021/01/07 06:14:26;;;;;;;7.50;5.50;;;153.60;2252.80;;;;;;5056503;28;20021;-88
2021/01/07 06:16:54;;;;;;;18.02;10.93;;;153.60;2252.80;;;;;;5052562;28;20036;-89
2021/01/07 06:19:35;;;;;;;32.53;19.77;;;153.70;2252.80;;;;;;5044439;28;20025;-89
2021/01/07 06:22:07;;;;;;;38.72;20.80;;;153.70;2252.80;;;;;;5047658;28;20083;-86
2021/01/07 06:24:39;;;;;;;21.35;13.25;;;153.80;2252.80;;;;;;5061143;28;20059;-85
2021/01/07 06:27:21;;;;;;;15.00;8.10;;;153.80;2252.80;;;;;;5060483;28;20025;-86
2021/01/07 06:29:49;;;;;;;31.53;17.23;;;153.90;2252.80;;;;;;5041972;28;20029;-85
2021/01/07 06:32:18;;;;;;;33.78;17.35;;;153.90;2227.20;;;;;;5055987;28;20025;-87
2021/01/07 06:34:49;;;;;;;24.80;14.23;;;154.00;2227.20;;;;;;5036681;28;20032;-88
2021/01/07 06:37:37;;;;;;;32.13;19.10;;;154.00;2227.20;;;;;;5056017;28;20036;-87
2021/01/07 06:40:07;;;;;;;32.55;19.10;;;154.00;2227.20;;;;;;5046237;28;20051;-88
2021/01/07 06:42:39;;;;;;;26.85;17.48;;;154.10;2227.20;;;;;;5055917;28;20033;-89
2021/01/07 06:45:06;;;;;;;26.90;16.80;;;154.00;2201.60;;;;;;5057022;28;20029;-87
2021/01/07 06:47:33;;;;;;;31.27;19.67;;;154.00;2227.20;;;;;;5056365;28;20087;-86
2021/01/07 06:50:03;;;;;;;40.67;25.67;;;154.00;2227.20;;;;;;5056250;28;20025;-88
2021/01/07 06:52:39;;;;;;;78.47;48.42;;;154.00;2227.20;;;;;;5055467;28;20079;-88
2021/01/07 06:55:14;;;;;;;93.22;57.42;;;154.10;2252.80;;;;;;5054900;28;20488;-89
2021/01/07 06:57:47;;;;;;;71.22;42.97;;;154.00;2252.80;;;;;;5051570;28;20015;-87
2021/01/07 07:00:23;;;;;;;86.60;53.05;;;154.10;2201.60;;;;;;5037268;28;20116;-88
2021/01/07 07:03:02;;;;;;;85.85;54.15;;;154.20;2201.60;;;;;;5034911;28;20631;-85
2021/01/07 07:05:39;;;;;;;71.13;46.80;;;154.30;2252.80;;;;;;5046858;28;20033;-83
2021/01/07 07:08:07;;;;;;;57.78;38.17;;;154.30;2252.80;;;;;;5036782;28;20032;-85
2021/01/07 07:10:33;;;;;;;72.75;63.08;;;154.30;2252.80;;;;;;5037348;28;20095;-86
2021/01/07 07:13:20;;;;;;;107.93;84.85;;;154.40;2252.80;;;;;;5038404;28;20479;-88
2021/01/07 07:15:47;;;;;;;83.57;54.97;;;154.40;2227.20;;;;;;5037602;28;20547;-89
2021/01/07 07:18:25;;;;;;;45.13;32.83;;;154.50;2227.20;;;;;;5037884;28;20029;-86
2021/01/07 07:20:51;;;;;;;53.17;36.30;;;154.50;2252.80;;;;;;5038039;28;20021;-87
2021/01/07 07:23:23;;;;;;;52.13;37.55;;;154.50;2252.80;;;;;;5037268;28;20120;-83
2021/01/07 07:25:51;;;;;;;72.95;48.72;;;179.30;2252.80;;;;;;5037293;28;20021;-86
2021/01/07 07:28:24;;;;;;;48.28;32.95;;;179.30;2252.80;;;;;;5038215;28;20032;-84
2021/01/07 07:30:51;;;;;;;27.08;20.50;;;179.30;2252.80;;;;;;5038187;28;20131;-86
2021/01/07 07:33:35;;;;;;;298.90;162.80;;;179.30;2252.80;;;;;;5037961;28;20028;-84
2021/01/07 07:36:02;;;;;;;169.60;120.30;;;179.40;2252.80;;;;;;5038389;28;20420;-87
2021/01/07 07:38:33;;;;;;;110.80;74.75;;;179.40;2252.80;;;;;;5037749;28;20467;-87
2021/01/07 07:41:07;;;;;;;80.13;64.45;;;179.30;2252.80;;;;;;5038213;28;20115;-87
2021/01/07 07:43:34;;;;;;;114.65;82.90;;;179.30;2252.80;;;;;;5038263;28;20037;-85
2021/01/07 07:46:01;;;;;;;103.00;69.90;;;153.70;2252.80;;;;;;5055703;28;20033;-85
2021/01/07 07:48:28;;;;;;;78.32;53.08;;;179.20;2252.80;;;;;;5038135;28;20060;-86
2021/01/07 07:51:08;;;;;;;73.45;51.25;;;179.30;2252.80;;;;;;5038161;28;20048;-86
2021/01/07 07:53:34;;;;;;;89.70;62.63;;;179.30;2252.80;;;;;;5038123;28;20029;-86
2021/01/07 07:56:00;;;;;;;102.25;68.95;;;179.20;2252.80;;;;;;5038316;28;20534;-86
2021/01/07 07:58:27;;;;;;;190.20;124.15;;;179.30;2252.80;;;;;;5037699;28;20029;-87
2021/01/07 08:00:55;;;;;;;125.20;86.47;;;179.30;2252.80;;;;;;5037623;28;20029;-85
2021/01/07 08:03:25;;;;;;;94.25;67.95;;;179.30;2252.80;;;;;;5037022;28;20021;-86
2021/01/07 08:05:52;;;;;;;60.63;42.88;;;179.30;2252.80;;;;;;5036762;28;20115;-84
2021/01/07 08:08:22;;;;;;;82.95;57.80;;;179.30;2252.80;;;;;;5037428;28;20021;-88
2021/01/07 08:10:49;;;;;;;40.22;29.27;;;154.50;2252.80;;;;;;5037619;28;20595;-88
2021/01/07 08:13:18;;;;;;;33.45;26.65;;;154.20;2252.80;;;;;;5037306;28;20033;-87
2021/01/07 08:15:58;;;;;;;26.45;20.58;;;154.50;2252.80;;;;;;5036813;28;20115;-86
2021/01/07 08:18:26;;;;;;;28.85;24.27;;;154.50;2252.80;;;;;;5033198;28;20024;-87
2021/01/07 08:20:54;;;;;;;28.95;23.02;;;154.50;2252.80;;;;;;5041404;28;20083;-86
2021/01/07 08:23:22;;;;;;;27.58;19.98;;;154.50;2252.80;;;;;;5053553;28;20025;-87
2021/01/07 08:25:52;;;;;;;34.53;26.63;;;154.40;2252.80;;;;;;5053202;28;20094;-85
2021/01/07 08:28:40;;;;;;;42.88;29.33;;;154.50;2252.80;;;;;;5051595;28;20075;-86
2021/01/07 08:31:10;;;;;;;45.35;31.25;;;154.40;2252.80;;;;;;5035184;28;20059;-86
2021/01/07 08:33:36;;;;;;;27.48;19.05;;;154.50;2252.80;;;;;;5036074;28;20071;-84
2021/01/07 08:36:14;;;;;;;47.17;32.40;;;154.50;2252.80;;;;;;5036496;28;20033;-86
2021/01/07 08:38:41;;;;;;;85.20;60.78;;;154.50;2252.80;;;;;;5025359;28;20102;-88
2021/01/07 08:41:20;;;;;;;67.07;45.60;;;179.20;2252.80;;;;;;5013930;28;20080;-89
2021/01/07 08:43:48;;;;;;;40.40;28.42;;;179.30;2252.80;;;;;;5015053;28;20041;-90
2021/01/07 08:46:37;;;;;;;52.65;36.00;;;179.30;2252.80;;;;;;5013762;28;20025;-89
2021/01/07 08:49:16;;;;;;;68.05;42.63;;;179.30;2252.80;;;;;;5014007;28;20046;-91
2021/01/07 08:51:43;;;;;;;73.03;47.55;;;179.30;2252.80;;;;;;5013654;28;20033;-87
2021/01/07 08:54:23;;;;;;;80.03;52.55;;;179.30;2252.80;;;;;;5013257;28;20030;-88
2021/01/07 08:56:50;;;;;;;82.75;58.05;;;179.40;2252.80;;;;;;5014177;28;20053;-89
2021/01/07 08:59:26;;;;;;;96.80;62.83;;;179.40;2252.80;;;;;;5014250;28;20084;-87
2021/01/07 09:02:00;;;;;;;107.75;66.63;;;179.40;2252.80;;;;;;5013856;28;20477;-88
2021/01/07 09:04:32;;;;;;;91.60;59.85;;;179.40;2252.80;;;;;;5013542;28;20022;-86
2021/01/07 09:07:05;;;;;;;90.45;56.28;;;179.40;2252.80;;;;;;5013679;28;20018;-88
2021/01/07 09:09:52;;;;;;;57.45;38.25;;;179.50;2252.80;;;;;;5015255;28;20022;-87
2021/01/07 09:12:24;;;;;;;75.63;55.25;;;179.50;2252.80;;;;;;5010594;28;20030;-86
2021/01/07 09:14:51;;;;;;;69.28;50.50;;;179.50;2252.80;;;;;;5025564;28;20030;-88
2021/01/07 09:17:19;;;;;;;65.13;47.70;;;179.40;2252.80;;;;;;5012929;28;20441;-88
2021/01/07 09:19:46;;;;;;;94.32;59.80;;;179.50;2252.80;;;;;;5013233;28;20030;-85
2021/01/07 09:22:18;;;;;;;67.25;42.10;;;179.60;2252.80;;;;;;5013782;28;20432;-90
2021/01/07 09:24:44;;;;;;;89.35;52.88;;;179.60;2252.80;;;;;;5029955;28;20038;-88
2021/01/07 09:27:13;;;;;;;102.05;65.25;;;179.60;2252.80;;;;;;5013729;28;20118;-88
2021/01/07 09:29:40;;;;;;;88.53;63.05;;;179.60;2252.80;;;;;;5013561;28;20104;-89
2021/01/07 09:32:08;;;;;;;83.72;62.15;;;179.80;2252.80;;;;;;5012271;28;20053;-87
2021/01/07 09:34:35;;;;;;;67.90;46.70;;;179.70;2252.80;;;;;;5012935;28;20022;-88
2021/01/07 09:37:14;;;;;;;45.38;33.10;;;179.70;2252.80;;;;;;5012317;28;20033;-86
2021/01/07 09:39:41;;;;;;;79.50;53.08;;;179.60;2252.80;;;;;;5045400;28;20041;-87
2021/01/07 09:42:07;;;;;;;36.35;24.65;;;179.50;2252.80;;;;;;5032228;28;20030;-86
2021/01/07 09:44:34;;;;;;;32.10;22.15;;;179.60;2252.80;;;;;;5032770;28;20049;-87
2021/01/07 09:47:01;;;;;;;49.42;34.88;;;179.90;2252.80;;;;;;5036008;28;20018;-86
2021/01/07 09:49:26;;;;;;;48.03;32.70;;;179.50;2252.80;;;;;;5032786;28;20128;-87
2021/01/07 09:51:53;;;;;;;32.50;23.85;;;179.70;2252.80;;;;;;5032090;28;20532;-87
2021/01/07 09:54:22;;;;;;;42.17;29.92;;;179.60;2252.80;;;;;;5032976;28;20037;-91
2021/01/07 09:56:50;;;;;;;28.52;22.55;;;179.70;2252.80;;;;;;5033262;28;20036;-90
2021/01/07 09:59:17;;;;;;;50.78;34.35;;;179.60;2252.80;;;;;;5033086;28;20524;-89
2021/01/07 10:01:43;;;;;;;50.53;35.05;;;179.60;2252.80;;;;;;5032552;28;20029;-90
2021/01/07 10:04:09;;;;;;;83.38;49.00;;;179.60;2252.80;;;;;;5033502;28;20021;-89
2021/01/07 10:06:35;;;;;;;89.35;56.85;;;179.60;2252.80;;;;;;5032921;28;20032;-89
2021/01/07 10:09:02;;;;;;;46.05;28.55;;;179.60;2252.80;;;;;;5033058;28;20057;-89
2021/01/07 10:11:29;;;;;;;55.67;35.25;;;179.50;2252.80;;;;;;5031941;28;21816;-89
2021/01/07 10:13:56;;;;;;;69.60;44.25;;;179.60;2252.80;;;;;;5037426;28;20025;-89
2021/01/07 10:16:22;;;;;;;113.72;68.65;;;179.60;2252.80;;;;;;5032029;28;20049;-90
2021/01/07 10:18:48;;;;;;;64.05;41.90;;;179.60;2252.80;;;;;;5033033;28;20112;-88
2021/01/07 10:21:21;;;;;;;68.20;48.22;;;179.60;2252.80;;;;;;5033282;28;20065;-90
2021/01/07 10:23:48;;;;;;;53.78;32.13;;;179.70;2252.80;;;;;;5033102;28;20026;-88
2021/01/07 10:26:17;;;;;;;43.30;27.77;;;180.00;2252.80;;;;;;5032910;28;20033;-88
2021/01/07 10:28:45;;;;;;;71.25;41.75;;;179.60;2252.80;;;;;;5035935;28;20049;-89
2021/01/07 10:31:13;;;;;;;59.00;40.28;;;179.60;2252.80;;;;;;5037294;28;20103;-89
2021/01/07 10:33:41;;;;;;;64.72;41.88;;;179.60;2252.80;;;;;;5036670;28;20029;-88
2021/01/07 10:36:07;;;;;;;98.60;57.60;;;179.60;2252.80;;;;;;5037152;28;20076;-89
2021/01/07 10:38:36;;;;;;;71.00;48.10;;;179.70;2252.80;;;;;;5036212;28;20054;-90
2021/01/07 10:41:05;;;;;;;59.25;43.08;;;179.70;2252.80;;;;;;5036567;28;20068;-90
2021/01/07 10:43:31;;;;;;;51.45;37.65;;;179.70;2252.80;;;;;;5036757;28;20354;-91
2021/01/07 10:46:02;;;;;;;54.75;39.80;;;179.90;2252.80;;;;;;5035335;28;20021;-90
2021/01/07 10:48:29;;;;;;;69.88;56.85;;;179.90;2252.80;;;;;;5036478;28;20021;-90
2021/01/07 10:51:01;;;;;;;53.92;40.20;;;179.90;2252.80;;;;;;5036278;28;20022;-90
2021/01/07 10:53:47;;;;;;;59.70;41.60;;;179.80;2252.80;;;;;;5036138;28;20022;-90
2021/01/07 10:56:54;;;;;;;51.67;36.92;;;179.90;2252.80;;;;;;5036343;28;20316;-90
2021/01/07 10:59:51;;;;;;;72.75;51.30;;;179.90;2252.80;;;;;;5035072;28;20049;-89
2021/01/07 11:02:35;;;;;;;60.00;44.10;;;180.10;2252.80;;;;;;5035837;28;20040;-87
2021/01/07 11:05:12;;;;;;;46.92;33.83;;;180.00;2252.80;;;;;;5036505;28;20030;-88
2021/01/07 11:08:02;;;;;;;26.33;20.90;;;180.00;2252.80;;;;;;5036111;28;20462;-87
2021/01/07 11:10:29;;;;;;;37.72;23.67;;;180.00;2252.80;;;;;;5036433;28;20028;-89
2021/01/07 11:13:02;;;;;;;90.72;54.90;;;180.00;2252.80;;;;;;5035812;28;20420;-87
2021/01/07 11:15:28;;;;;;;60.00;40.65;;;180.10;2252.80;;;;;;5035889;28;20057;-87
2021/01/07 11:18:06;;;;;;;76.75;48.25;;;179.50;2227.20;;;;;;5035818;28;20499;-88
2021/01/07 11:20:35;;;;;;;62.78;40.60;;;180.00;2252.80;;;;;;5036020;28;20045;-88
2021/01/07 11:23:03;;;;;;;45.75;31.45;;;180.10;2227.20;;;;;;5035646;28;20029;-88
2021/01/07 11:25:30;;;;;;;40.92;28.30;;;180.10;2201.60;;;;;;5035160;28;20116;-90
2021/01/07 11:27:59;;;;;;;38.67;26.55;;;204.90;2227.20;;;;;;5035293;28;20037;-88
2021/01/07 11:30:26;;;;;;;73.97;48.15;;;180.10;2227.20;;;;;;5036092;28;20029;-87
2021/01/07 11:32:52;;;;;;;55.47;36.70;;;179.90;2227.20;;;;;;5035921;28;20032;-88
2021/01/07 11:35:18;;;;;;;27.52;19.40;;;179.90;2227.20;;;;;;5035105;28;20036;-87
2021/01/07 11:38:10;;;;;;;26.75;18.58;;;205.00;2201.60;;;;;;5035628;28;20449;-89
2021/01/07 11:40:50;;;;;;;46.75;30.83;;;180.00;2176.00;;;;;;5038211;28;20036;-88
2021/01/07 11:43:40;;;;;;;72.63;44.33;;;180.10;2201.60;;;;;;5038312;28;20033;-87
2021/01/07 11:46:11;;;;;;;66.78;38.05;;;180.10;2201.60;;;;;;5039077;28;20434;-88
2021/01/07 11:48:41;;;;;;;39.72;27.70;;;180.10;2201.60;;;;;;5038021;28;20025;-88
2021/01/07 11:51:10;;;;;;;43.05;28.83;;;180.10;2201.60;;;;;;5038104;28;20036;-88
2021/01/07 11:53:37;;;;;;;74.95;49.92;;;180.10;2201.60;;;;;;5037816;28;20380;-88
2021/01/07 11:56:04;;;;;;;57.05;37.92;;;204.80;2227.20;;;;;;5038075;28;20035;-87
2021/01/07 11:58:30;;;;;;;61.25;37.40;;;180.10;2227.20;;;;;;5038870;28;20029;-88
2021/01/07 12:01:01;;;;;;;53.53;36.00;;;204.80;2227.20;;;;;;5054082;28;20021;-88
2021/01/07 12:03:32;;;;;;;58.15;39.33;;;204.80;2201.60;;;;;;5037593;28;20025;-88
2021/01/07 12:06:01;;;;;;;41.95;26.23;;;204.90;2201.60;;;;;;5037470;28;20028;-88
2021/01/07 12:08:49;;;;;;;62.55;36.45;;;205.00;2176.00;;;;;;5038099;28;20531;-88
2021/01/07 12:11:40;;;;;;;42.47;26.40;;;205.00;2201.60;;;;;;5037984;28;20075;-88